sensor_id;sensor_type;location;lat;lon;timestamp;P1;durP1;ratioP1;P2;durP2;ratioP2
26391;SDS011;14572;43.120;1.178;2022-07-11T00:02:20;5.28;;;1.90;;
26391;SDS011;14572;43.120;1.178;2022-07-11T00:04:47;2.17;;;1.90;;
26391;SDS011;14572;43.120;1.178;2022-07-11T00:07:16;2.97;;;2.08;;
26391;SDS011;14572;43.120;1.178;2022-07-11T00:09:43;3.58;;;2.05;;
26391;SDS011;14572;43.120;1.178;2022-07-11T00:12:11;4.22;;;1.83;;
26391;SDS011;14572;43.120;1.178;2022-07-11T00:14:38;2.45;;;1.95;;
26391;SDS011;14572;43.120;1.178;2022-07-11T00:17:06;3.00;;;2.00;;
26391;SDS011;14572;43.120;1.178;2022-07-11T00:19:33;3.20;;;1.90;;
26391;SDS011;14572;43.120;1.178;2022-07-11T00:22:00;3.97;;;2.40;;
26391;SDS011;14572;43.120;1.178;2022-07-11T00:24:29;4.47;;;2.05;;
26391;SDS011;14572;43.120;1.178;2022-07-11T00:26:56;2.97;;;1.83;;
26391;SDS011;14572;43.120;1.178;2022-07-11T00:29:23;4.85;;;2.15;;
26391;SDS011;14572;43.120;1.178;2022-07-11T00:31:50;2.78;;;2.00;;
26391;SDS011;14572;43.120;1.178;2022-07-11T00:34:17;2.97;;;2.00;;
26391;SDS011;14572;43.120;1.178;2022-07-11T00:36:44;3.25;;;2.10;;
26391;SDS011;14572;43.120;1.178;2022-07-11T00:39:11;2.30;;;2.05;;
26391;SDS011;14572;43.120;1.178;2022-07-11T00:41:40;2.97;;;1.90;;
26391;SDS011;14572;43.120;1.178;2022-07-11T00:44:07;3.38;;;2.28;;
26391;SDS011;14572;43.120;1.178;2022-07-11T00:46:34;8.23;;;2.25;;
26391;SDS011;14572;43.120;1.178;2022-07-11T00:49:01;3.25;;;2.50;;
26391;SDS011;14572;43.120;1.178;2022-07-11T00:51:28;2.35;;;2.05;;
26391;SDS011;14572;43.120;1.178;2022-07-11T00:53:57;3.15;;;2.30;;
26391;SDS011;14572;43.120;1.178;2022-07-11T00:56:25;3.47;;;2.05;;
26391;SDS011;14572;43.120;1.178;2022-07-11T00:58:56;7.40;;;2.50;;
26391;SDS011;14572;43.120;1.178;2022-07-11T01:01:24;5.30;;;1.98;;
26391;SDS011;14572;43.120;1.178;2022-07-11T01:03:51;3.15;;;2.20;;
26391;SDS011;14572;43.120;1.178;2022-07-11T01:06:18;6.85;;;2.42;;
26391;SDS011;14572;43.120;1.178;2022-07-11T01:08:45;2.00;;;1.83;;
26391;SDS011;14572;43.120;1.178;2022-07-11T01:11:12;5.40;;;2.40;;
26391;SDS011;14572;43.120;1.178;2022-07-11T01:13:41;3.65;;;2.00;;
26391;SDS011;14572;43.120;1.178;2022-07-11T01:16:14;2.30;;;2.10;;
26391;SDS011;14572;43.120;1.178;2022-07-11T01:18:42;3.60;;;2.30;;
26391;SDS011;14572;43.120;1.178;2022-07-11T01:21:11;4.32;;;1.90;;
26391;SDS011;14572;43.120;1.178;2022-07-11T01:23:47;4.40;;;2.25;;
26391;SDS011;14572;43.120;1.178;2022-07-11T01:26:15;3.33;;;2.20;;
26391;SDS011;14572;43.120;1.178;2022-07-11T01:28:42;4.43;;;2.38;;
26391;SDS011;14572;43.120;1.178;2022-07-11T01:31:10;3.92;;;2.80;;
26391;SDS011;14572;43.120;1.178;2022-07-11T01:33:38;2.20;;;2.00;;
26391;SDS011;14572;43.120;1.178;2022-07-11T01:36:05;3.50;;;2.17;;
26391;SDS011;14572;43.120;1.178;2022-07-11T01:38:32;4.25;;;2.53;;
26391;SDS011;14572;43.120;1.178;2022-07-11T01:41:01;2.90;;;1.98;;
26391;SDS011;14572;43.120;1.178;2022-07-11T01:43:28;9.55;;;2.63;;
26391;SDS011;14572;43.120;1.178;2022-07-11T01:45:55;3.88;;;2.17;;
26391;SDS011;14572;43.120;1.178;2022-07-11T01:48:23;5.20;;;2.58;;
26391;SDS011;14572;43.120;1.178;2022-07-11T01:50:50;4.03;;;2.30;;
26391;SDS011;14572;43.120;1.178;2022-07-11T01:53:17;4.60;;;2.40;;
26391;SDS011;14572;43.120;1.178;2022-07-11T01:55:44;3.03;;;2.15;;
26391;SDS011;14572;43.120;1.178;2022-07-11T01:58:12;4.82;;;2.60;;
26391;SDS011;14572;43.120;1.178;2022-07-11T02:00:39;3.83;;;2.40;;
26391;SDS011;14572;43.120;1.178;2022-07-11T02:03:07;3.08;;;1.92;;
26391;SDS011;14572;43.120;1.178;2022-07-11T02:05:35;5.30;;;2.63;;
26391;SDS011;14572;43.120;1.178;2022-07-11T02:08:04;3.50;;;2.47;;
26391;SDS011;14572;43.120;1.178;2022-07-11T02:10:38;4.00;;;2.47;;
26391;SDS011;14572;43.120;1.178;2022-07-11T02:13:07;2.65;;;2.45;;
26391;SDS011;14572;43.120;1.178;2022-07-11T02:15:36;3.85;;;2.78;;
26391;SDS011;14572;43.120;1.178;2022-07-11T02:18:03;4.10;;;2.38;;
26391;SDS011;14572;43.120;1.178;2022-07-11T02:20:30;2.63;;;2.20;;
26391;SDS011;14572;43.120;1.178;2022-07-11T02:22:58;4.00;;;2.50;;
26391;SDS011;14572;43.120;1.178;2022-07-11T02:25:25;4.93;;;2.72;;
26391;SDS011;14572;43.120;1.178;2022-07-11T02:27:53;4.57;;;2.42;;
26391;SDS011;14572;43.120;1.178;2022-07-11T02:30:20;3.47;;;2.20;;
26391;SDS011;14572;43.120;1.178;2022-07-11T02:32:49;3.05;;;2.53;;
26391;SDS011;14572;43.120;1.178;2022-07-11T02:35:16;4.95;;;2.47;;
26391;SDS011;14572;43.120;1.178;2022-07-11T02:37:43;3.63;;;2.30;;
26391;SDS011;14572;43.120;1.178;2022-07-11T02:40:10;5.70;;;2.60;;
26391;SDS011;14572;43.120;1.178;2022-07-11T02:42:38;3.65;;;2.85;;
26391;SDS011;14572;43.120;1.178;2022-07-11T02:45:05;2.70;;;2.42;;
26391;SDS011;14572;43.120;1.178;2022-07-11T02:47:33;3.08;;;2.67;;
26391;SDS011;14572;43.120;1.178;2022-07-11T02:50:04;3.90;;;2.53;;
26391;SDS011;14572;43.120;1.178;2022-07-11T02:52:32;3.05;;;2.58;;
26391;SDS011;14572;43.120;1.178;2022-07-11T02:54:59;5.15;;;2.38;;
26391;SDS011;14572;43.120;1.178;2022-07-11T02:57:27;5.70;;;2.78;;
26391;SDS011;14572;43.120;1.178;2022-07-11T02:59:54;4.15;;;2.53;;
26391;SDS011;14572;43.120;1.178;2022-07-11T03:02:21;3.50;;;2.58;;
26391;SDS011;14572;43.120;1.178;2022-07-11T03:04:48;7.07;;;2.65;;
26391;SDS011;14572;43.120;1.178;2022-07-11T03:07:17;5.53;;;2.45;;
26391;SDS011;14572;43.120;1.178;2022-07-11T03:09:44;3.63;;;2.40;;
26391;SDS011;14572;43.120;1.178;2022-07-11T03:12:11;4.97;;;2.60;;
26391;SDS011;14572;43.120;1.178;2022-07-11T03:14:38;2.75;;;2.40;;
26391;SDS011;14572;43.120;1.178;2022-07-11T03:17:05;3.20;;;2.58;;
26391;SDS011;14572;43.120;1.178;2022-07-11T03:19:32;4.15;;;2.92;;
26391;SDS011;14572;43.120;1.178;2022-07-11T03:21:59;3.08;;;2.70;;
26391;SDS011;14572;43.120;1.178;2022-07-11T03:24:28;3.20;;;2.78;;
26391;SDS011;14572;43.120;1.178;2022-07-11T03:26:55;3.15;;;2.47;;
26391;SDS011;14572;43.120;1.178;2022-07-11T03:29:22;4.90;;;2.80;;
26391;SDS011;14572;43.120;1.178;2022-07-11T03:31:49;4.38;;;3.00;;
26391;SDS011;14572;43.120;1.178;2022-07-11T03:34:17;3.35;;;2.40;;
26391;SDS011;14572;43.120;1.178;2022-07-11T03:36:44;4.65;;;2.70;;
26391;SDS011;14572;43.120;1.178;2022-07-11T03:39:12;8.02;;;2.70;;
26391;SDS011;14572;43.120;1.178;2022-07-11T03:41:41;6.05;;;2.78;;
26391;SDS011;14572;43.120;1.178;2022-07-11T03:44:08;6.95;;;2.63;;
26391;SDS011;14572;43.120;1.178;2022-07-11T03:46:35;2.90;;;2.63;;
26391;SDS011;14572;43.120;1.178;2022-07-11T03:49:03;3.28;;;2.70;;
26391;SDS011;14572;43.120;1.178;2022-07-11T03:51:30;2.53;;;2.22;;
26391;SDS011;14572;43.120;1.178;2022-07-11T03:53:57;3.80;;;2.63;;
26391;SDS011;14572;43.120;1.178;2022-07-11T03:56:24;3.47;;;2.90;;
26391;SDS011;14572;43.120;1.178;2022-07-11T03:58:52;3.58;;;2.60;;
26391;SDS011;14572;43.120;1.178;2022-07-11T04:01:19;5.32;;;2.75;;
26391;SDS011;14572;43.120;1.178;2022-07-11T04:03:46;4.03;;;2.50;;
26391;SDS011;14572;43.120;1.178;2022-07-11T04:06:14;4.55;;;2.92;;
26391;SDS011;14572;43.120;1.178;2022-07-11T04:08:41;3.65;;;2.45;;
26391;SDS011;14572;43.120;1.178;2022-07-11T04:11:08;4.13;;;2.63;;
26391;SDS011;14572;43.120;1.178;2022-07-11T04:13:37;4.57;;;2.58;;
26391;SDS011;14572;43.120;1.178;2022-07-11T04:16:06;4.95;;;2.80;;
26391;SDS011;14572;43.120;1.178;2022-07-11T04:18:33;3.78;;;2.80;;
26391;SDS011;14572;43.120;1.178;2022-07-11T04:21:00;3.42;;;2.85;;
26391;SDS011;14572;43.120;1.178;2022-07-11T04:23:27;5.20;;;2.80;;
26391;SDS011;14572;43.120;1.178;2022-07-11T04:25:55;6.13;;;3.10;;
26391;SDS011;14572;43.120;1.178;2022-07-11T04:28:22;5.45;;;2.60;;
26391;SDS011;14572;43.120;1.178;2022-07-11T04:30:49;3.35;;;2.58;;
26391;SDS011;14572;43.120;1.178;2022-07-11T04:33:17;3.47;;;2.70;;
26391;SDS011;14572;43.120;1.178;2022-07-11T04:35:44;5.18;;;2.67;;
26391;SDS011;14572;43.120;1.178;2022-07-11T04:38:11;5.57;;;3.08;;
26391;SDS011;14572;43.120;1.178;2022-07-11T04:40:38;4.22;;;2.80;;
26391;SDS011;14572;43.120;1.178;2022-07-11T04:43:06;4.72;;;2.63;;
26391;SDS011;14572;43.120;1.178;2022-07-11T04:45:33;4.47;;;2.60;;
26391;SDS011;14572;43.120;1.178;2022-07-11T04:48:00;3.13;;;2.80;;
26391;SDS011;14572;43.120;1.178;2022-07-11T04:50:29;2.88;;;2.53;;
26391;SDS011;14572;43.120;1.178;2022-07-11T04:52:56;3.33;;;2.60;;
26391;SDS011;14572;43.120;1.178;2022-07-11T04:55:23;3.60;;;2.72;;
26391;SDS011;14572;43.120;1.178;2022-07-11T04:57:50;4.63;;;2.50;;
26391;SDS011;14572;43.120;1.178;2022-07-11T05:00:17;6.38;;;2.88;;
26391;SDS011;14572;43.120;1.178;2022-07-11T05:02:45;5.05;;;2.90;;
26391;SDS011;14572;43.120;1.178;2022-07-11T05:05:13;4.30;;;2.55;;
26391;SDS011;14572;43.120;1.178;2022-07-11T05:07:41;4.15;;;2.60;;
26391;SDS011;14572;43.120;1.178;2022-07-11T05:10:08;3.72;;;2.25;;
26391;SDS011;14572;43.120;1.178;2022-07-11T05:12:35;3.17;;;2.40;;
26391;SDS011;14572;43.120;1.178;2022-07-11T05:15:03;5.38;;;3.03;;
26391;SDS011;14572;43.120;1.178;2022-07-11T05:17:30;2.90;;;2.60;;
26391;SDS011;14572;43.120;1.178;2022-07-11T05:19:58;6.35;;;2.92;;
26391;SDS011;14572;43.120;1.178;2022-07-11T05:22:25;5.65;;;3.00;;
26391;SDS011;14572;43.120;1.178;2022-07-11T05:24:53;4.25;;;2.63;;
26391;SDS011;14572;43.120;1.178;2022-07-11T05:27:20;3.40;;;2.33;;
26391;SDS011;14572;43.120;1.178;2022-07-11T05:29:47;5.00;;;2.65;;
26391;SDS011;14572;43.120;1.178;2022-07-11T05:32:15;2.60;;;2.38;;
26391;SDS011;14572;43.120;1.178;2022-07-11T05:34:42;4.72;;;2.65;;
26391;SDS011;14572;43.120;1.178;2022-07-11T05:37:09;5.13;;;2.78;;
26391;SDS011;14572;43.120;1.178;2022-07-11T05:39:36;3.63;;;2.47;;
26391;SDS011;14572;43.120;1.178;2022-07-11T05:42:05;3.60;;;2.70;;
26391;SDS011;14572;43.120;1.178;2022-07-11T05:44:32;3.65;;;2.90;;
26391;SDS011;14572;43.120;1.178;2022-07-11T05:46:59;3.78;;;2.92;;
26391;SDS011;14572;43.120;1.178;2022-07-11T05:49:27;5.70;;;3.22;;
26391;SDS011;14572;43.120;1.178;2022-07-11T05:51:55;4.05;;;2.80;;
26391;SDS011;14572;43.120;1.178;2022-07-11T05:54:22;3.22;;;2.40;;
26391;SDS011;14572;43.120;1.178;2022-07-11T05:56:49;3.10;;;2.63;;
26391;SDS011;14572;43.120;1.178;2022-07-11T05:59:18;3.33;;;2.20;;
26391;SDS011;14572;43.120;1.178;2022-07-11T06:01:45;2.50;;;2.15;;
26391;SDS011;14572;43.120;1.178;2022-07-11T06:04:12;3.92;;;2.35;;
26391;SDS011;14572;43.120;1.178;2022-07-11T06:06:39;5.63;;;2.53;;
26391;SDS011;14572;43.120;1.178;2022-07-11T06:09:06;4.68;;;2.45;;
26391;SDS011;14572;43.120;1.178;2022-07-11T06:11:33;3.65;;;2.50;;
26391;SDS011;14572;43.120;1.178;2022-07-11T06:14:00;3.15;;;2.60;;
26391;SDS011;14572;43.120;1.178;2022-07-11T06:16:29;3.13;;;2.40;;
26391;SDS011;14572;43.120;1.178;2022-07-11T06:18:56;3.50;;;2.38;;
26391;SDS011;14572;43.120;1.178;2022-07-11T06:21:23;3.55;;;2.38;;
26391;SDS011;14572;43.120;1.178;2022-07-11T06:23:50;4.70;;;2.72;;
26391;SDS011;14572;43.120;1.178;2022-07-11T06:26:17;4.47;;;2.22;;
26391;SDS011;14572;43.120;1.178;2022-07-11T06:28:44;3.80;;;2.33;;
26391;SDS011;14572;43.120;1.178;2022-07-11T06:31:11;2.90;;;2.20;;
26391;SDS011;14572;43.120;1.178;2022-07-11T06:33:40;4.35;;;2.33;;
26391;SDS011;14572;43.120;1.178;2022-07-11T06:36:07;3.10;;;2.42;;
26391;SDS011;14572;43.120;1.178;2022-07-11T06:38:35;3.08;;;2.63;;
26391;SDS011;14572;43.120;1.178;2022-07-11T06:41:02;2.60;;;2.05;;
26391;SDS011;14572;43.120;1.178;2022-07-11T06:43:29;2.45;;;2.10;;
26391;SDS011;14572;43.120;1.178;2022-07-11T06:45:56;3.75;;;2.30;;
26391;SDS011;14572;43.120;1.178;2022-07-11T06:48:24;2.95;;;2.50;;
26391;SDS011;14572;43.120;1.178;2022-07-11T06:50:53;2.83;;;1.98;;
26391;SDS011;14572;43.120;1.178;2022-07-11T06:53:20;2.92;;;2.00;;
26391;SDS011;14572;43.120;1.178;2022-07-11T06:55:47;2.63;;;2.00;;
26391;SDS011;14572;43.120;1.178;2022-07-11T06:58:14;2.72;;;2.05;;
26391;SDS011;14572;43.120;1.178;2022-07-11T07:00:57;3.05;;;1.75;;
26391;SDS011;14572;43.120;1.178;2022-07-11T07:03:25;2.30;;;2.10;;
26391;SDS011;14572;43.120;1.178;2022-07-11T07:05:55;3.70;;;2.13;;
26391;SDS011;14572;43.120;1.178;2022-07-11T07:08:23;4.18;;;1.92;;
26391;SDS011;14572;43.120;1.178;2022-07-11T07:10:51;2.80;;;1.60;;
26391;SDS011;14572;43.120;1.178;2022-07-11T07:13:18;2.85;;;2.10;;
26391;SDS011;14572;43.120;1.178;2022-07-11T07:15:48;2.72;;;2.15;;
26391;SDS011;14572;43.120;1.178;2022-07-11T07:18:15;4.13;;;2.20;;
26391;SDS011;14572;43.120;1.178;2022-07-11T07:20:43;2.78;;;2.13;;
26391;SDS011;14572;43.120;1.178;2022-07-11T07:23:11;2.05;;;1.85;;
26391;SDS011;14572;43.120;1.178;2022-07-11T07:25:38;2.40;;;1.90;;
26391;SDS011;14572;43.120;1.178;2022-07-11T07:28:05;2.33;;;1.88;;
26391;SDS011;14572;43.120;1.178;2022-07-11T07:30:32;3.28;;;2.08;;
26391;SDS011;14572;43.120;1.178;2022-07-11T07:32:59;4.00;;;2.00;;
26391;SDS011;14572;43.120;1.178;2022-07-11T07:35:27;2.70;;;2.17;;
26391;SDS011;14572;43.120;1.178;2022-07-11T07:37:54;2.83;;;1.67;;
26391;SDS011;14572;43.120;1.178;2022-07-11T07:40:23;2.00;;;1.75;;
26391;SDS011;14572;43.120;1.178;2022-07-11T07:42:50;3.95;;;2.15;;
26391;SDS011;14572;43.120;1.178;2022-07-11T07:45:17;2.00;;;1.73;;
26391;SDS011;14572;43.120;1.178;2022-07-11T07:47:44;2.83;;;1.90;;
26391;SDS011;14572;43.120;1.178;2022-07-11T07:50:11;4.15;;;2.17;;
26391;SDS011;14572;43.120;1.178;2022-07-11T07:52:38;2.92;;;2.40;;
26391;SDS011;14572;43.120;1.178;2022-07-11T07:55:06;2.17;;;1.90;;
26391;SDS011;14572;43.120;1.178;2022-07-11T07:57:35;2.47;;;1.70;;
26391;SDS011;14572;43.120;1.178;2022-07-11T08:00:02;2.83;;;1.95;;
26391;SDS011;14572;43.120;1.178;2022-07-11T08:02:47;2.60;;;2.22;;
26391;SDS011;14572;43.120;1.178;2022-07-11T08:05:16;2.45;;;1.50;;
26391;SDS011;14572;43.120;1.178;2022-07-11T08:07:43;2.13;;;1.80;;
26391;SDS011;14572;43.120;1.178;2022-07-11T08:10:10;2.38;;;1.85;;
26391;SDS011;14572;43.120;1.178;2022-07-11T08:12:39;3.75;;;1.70;;
26391;SDS011;14572;43.120;1.178;2022-07-11T08:15:20;2.60;;;1.40;;
26391;SDS011;14572;43.120;1.178;2022-07-11T08:17:47;2.25;;;1.73;;
26391;SDS011;14572;43.120;1.178;2022-07-11T08:20:14;1.52;;;1.30;;
26391;SDS011;14572;43.120;1.178;2022-07-11T08:22:41;1.77;;;1.17;;
26391;SDS011;14572;43.120;1.178;2022-07-11T08:25:09;2.00;;;1.50;;
26391;SDS011;14572;43.120;1.178;2022-07-11T08:27:36;1.70;;;1.60;;
26391;SDS011;14572;43.120;1.178;2022-07-11T08:30:05;1.90;;;1.50;;
26391;SDS011;14572;43.120;1.178;2022-07-11T08:32:33;2.38;;;1.80;;
26391;SDS011;14572;43.120;1.178;2022-07-11T08:35:00;3.28;;;2.05;;
26391;SDS011;14572;43.120;1.178;2022-07-11T08:37:27;3.53;;;1.73;;
26391;SDS011;14572;43.120;1.178;2022-07-11T08:39:54;2.72;;;1.52;;
26391;SDS011;14572;43.120;1.178;2022-07-11T08:42:21;2.10;;;1.30;;
26391;SDS011;14572;43.120;1.178;2022-07-11T08:44:50;3.05;;;1.70;;
26391;SDS011;14572;43.120;1.178;2022-07-11T08:47:20;1.90;;;1.50;;
26391;SDS011;14572;43.120;1.178;2022-07-11T08:49:51;2.33;;;1.33;;
26391;SDS011;14572;43.120;1.178;2022-07-11T08:52:18;3.88;;;2.00;;
26391;SDS011;14572;43.120;1.178;2022-07-11T08:54:48;3.65;;;2.20;;
26391;SDS011;14572;43.120;1.178;2022-07-11T08:57:15;3.63;;;2.53;;
26391;SDS011;14572;43.120;1.178;2022-07-11T08:59:42;8.40;;;4.93;;
26391;SDS011;14572;43.120;1.178;2022-07-11T09:02:10;7.03;;;4.80;;
26391;SDS011;14572;43.120;1.178;2022-07-11T09:04:39;6.78;;;4.93;;
26391;SDS011;14572;43.120;1.178;2022-07-11T09:07:07;5.20;;;4.70;;
26391;SDS011;14572;43.120;1.178;2022-07-11T09:09:34;6.43;;;4.80;;
26391;SDS011;14572;43.120;1.178;2022-07-11T09:12:01;7.15;;;4.50;;
26391;SDS011;14572;43.120;1.178;2022-07-11T09:14:29;4.70;;;4.30;;
26391;SDS011;14572;43.120;1.178;2022-07-11T09:16:57;4.25;;;3.95;;
26391;SDS011;14572;43.120;1.178;2022-07-11T09:19:26;7.78;;;4.10;;
26391;SDS011;14572;43.120;1.178;2022-07-11T09:21:59;4.15;;;3.85;;
26391;SDS011;14572;43.120;1.178;2022-07-11T09:24:57;4.13;;;3.83;;
26391;SDS011;14572;43.120;1.178;2022-07-11T09:27:44;4.60;;;4.20;;
26391;SDS011;14572;43.120;1.178;2022-07-11T09:30:19;4.32;;;4.10;;
26391;SDS011;14572;43.120;1.178;2022-07-11T09:32:54;4.88;;;4.03;;
26391;SDS011;14572;43.120;1.178;2022-07-11T09:35:23;3.13;;;2.90;;
26391;SDS011;14572;43.120;1.178;2022-07-11T09:37:53;2.90;;;2.70;;
26391;SDS011;14572;43.120;1.178;2022-07-11T09:40:20;2.70;;;1.30;;
26391;SDS011;14572;43.120;1.178;2022-07-11T09:42:49;3.85;;;1.30;;
26391;SDS011;14572;43.120;1.178;2022-07-11T09:45:17;2.13;;;1.10;;
26391;SDS011;14572;43.120;1.178;2022-07-11T09:47:45;2.05;;;1.08;;
26391;SDS011;14572;43.120;1.178;2022-07-11T09:50:13;1.23;;;1.10;;
26391;SDS011;14572;43.120;1.178;2022-07-11T09:52:47;2.70;;;0.90;;
26391;SDS011;14572;43.120;1.178;2022-07-11T09:55:27;1.25;;;1.10;;
26391;SDS011;14572;43.120;1.178;2022-07-11T09:57:54;4.93;;;1.10;;
26391;SDS011;14572;43.120;1.178;2022-07-11T10:00:21;2.55;;;0.90;;
26391;SDS011;14572;43.120;1.178;2022-07-11T10:02:48;1.83;;;1.02;;
26391;SDS011;14572;43.120;1.178;2022-07-11T10:05:18;1.15;;;0.80;;
26391;SDS011;14572;43.120;1.178;2022-07-11T10:07:49;1.45;;;0.98;;
26391;SDS011;14572;43.120;1.178;2022-07-11T10:10:17;2.13;;;1.10;;
26391;SDS011;14572;43.120;1.178;2022-07-11T10:12:45;1.23;;;1.00;;
26391;SDS011;14572;43.120;1.178;2022-07-11T10:15:14;1.10;;;1.00;;
26391;SDS011;14572;43.120;1.178;2022-07-11T10:17:44;1.63;;;0.90;;
26391;SDS011;14572;43.120;1.178;2022-07-11T10:20:22;3.97;;;0.90;;
26391;SDS011;14572;43.120;1.178;2022-07-11T10:22:59;4.72;;;1.48;;
26391;SDS011;14572;43.120;1.178;2022-07-11T10:25:35;1.90;;;0.90;;
26391;SDS011;14572;43.120;1.178;2022-07-11T10:28:08;0.98;;;0.85;;
26391;SDS011;14572;43.120;1.178;2022-07-11T10:30:44;1.33;;;1.10;;
26391;SDS011;14572;43.120;1.178;2022-07-11T10:33:12;1.00;;;0.90;;
26391;SDS011;14572;43.120;1.178;2022-07-11T10:35:40;3.80;;;1.15;;
26391;SDS011;14572;43.120;1.178;2022-07-11T10:38:07;2.55;;;1.42;;
26391;SDS011;14572;43.120;1.178;2022-07-11T10:40:43;2.05;;;0.80;;
26391;SDS011;14572;43.120;1.178;2022-07-11T10:43:11;1.13;;;0.90;;
26391;SDS011;14572;43.120;1.178;2022-07-11T10:45:49;0.88;;;0.80;;
26391;SDS011;14572;43.120;1.178;2022-07-11T10:48:26;1.00;;;0.88;;
26391;SDS011;14572;43.120;1.178;2022-07-11T10:51:00;1.17;;;0.85;;
26391;SDS011;14572;43.120;1.178;2022-07-11T10:53:32;0.95;;;0.85;;
26391;SDS011;14572;43.120;1.178;2022-07-11T10:56:10;1.77;;;1.08;;
26391;SDS011;14572;43.120;1.178;2022-07-11T10:58:45;2.50;;;2.38;;
26391;SDS011;14572;43.120;1.178;2022-07-11T11:01:24;2.70;;;2.50;;
26391;SDS011;14572;43.120;1.178;2022-07-11T11:03:53;7.63;;;2.83;;
26391;SDS011;14572;43.120;1.178;2022-07-11T11:06:55;3.70;;;3.40;;
26391;SDS011;14572;43.120;1.178;2022-07-11T11:09:36;3.28;;;3.08;;
26391;SDS011;14572;43.120;1.178;2022-07-11T11:12:05;4.10;;;3.80;;
26391;SDS011;14572;43.120;1.178;2022-07-11T11:14:33;3.30;;;3.10;;
26391;SDS011;14572;43.120;1.178;2022-07-11T11:20:02;4.30;;;2.70;;
26391;SDS011;14572;43.120;1.178;2022-07-11T11:22:30;1.58;;;1.00;;
26391;SDS011;14572;43.120;1.178;2022-07-11T11:24:57;2.42;;;1.10;;
26391;SDS011;14572;43.120;1.178;2022-07-11T11:27:25;2.05;;;0.90;;
26391;SDS011;14572;43.120;1.178;2022-07-11T11:29:53;1.88;;;1.05;;
26391;SDS011;14572;43.120;1.178;2022-07-11T11:32:21;1.08;;;0.90;;
26391;SDS011;14572;43.120;1.178;2022-07-11T11:34:51;1.13;;;1.00;;
26391;SDS011;14572;43.120;1.178;2022-07-11T11:37:18;2.65;;;0.98;;
26391;SDS011;14572;43.120;1.178;2022-07-11T11:39:45;1.60;;;1.00;;
26391;SDS011;14572;43.120;1.178;2022-07-11T11:42:13;1.30;;;1.00;;
26391;SDS011;14572;43.120;1.178;2022-07-11T11:44:50;1.85;;;1.20;;
26391;SDS011;14572;43.120;1.178;2022-07-11T11:47:24;2.13;;;0.80;;
26391;SDS011;14572;43.120;1.178;2022-07-11T11:49:51;1.38;;;0.77;;
26391;SDS011;14572;43.120;1.178;2022-07-11T11:52:19;1.35;;;0.82;;
26391;SDS011;14572;43.120;1.178;2022-07-11T11:54:53;1.15;;;1.05;;
26391;SDS011;14572;43.120;1.178;2022-07-11T11:57:22;1.10;;;0.80;;
26391;SDS011;14572;43.120;1.178;2022-07-11T11:59:51;1.95;;;0.98;;
26391;SDS011;14572;43.120;1.178;2022-07-11T12:02:22;2.78;;;1.42;;
26391;SDS011;14572;43.120;1.178;2022-07-11T12:04:50;1.10;;;0.95;;
26391;SDS011;14572;43.120;1.178;2022-07-11T12:07:26;0.93;;;0.80;;
26391;SDS011;14572;43.120;1.178;2022-07-11T12:09:54;1.77;;;1.00;;
26391;SDS011;14572;43.120;1.178;2022-07-11T12:12:24;2.42;;;0.98;;
26391;SDS011;14572;43.120;1.178;2022-07-11T12:15:24;1.13;;;0.90;;
26391;SDS011;14572;43.120;1.178;2022-07-11T12:17:55;1.27;;;0.80;;
26391;SDS011;14572;43.120;1.178;2022-07-11T12:20:38;1.20;;;0.85;;
26391;SDS011;14572;43.120;1.178;2022-07-11T12:23:12;3.03;;;1.10;;
26391;SDS011;14572;43.120;1.178;2022-07-11T12:25:40;0.93;;;0.80;;
26391;SDS011;14572;43.120;1.178;2022-07-11T12:28:07;2.65;;;1.02;;
26391;SDS011;14572;43.120;1.178;2022-07-11T12:30:36;1.33;;;0.80;;
26391;SDS011;14572;43.120;1.178;2022-07-11T12:33:04;0.90;;;0.70;;
26391;SDS011;14572;43.120;1.178;2022-07-11T12:35:32;0.85;;;0.85;;
26391;SDS011;14572;43.120;1.178;2022-07-11T12:38:00;1.23;;;0.80;;
26391;SDS011;14572;43.120;1.178;2022-07-11T12:40:27;3.70;;;0.90;;
26391;SDS011;14572;43.120;1.178;2022-07-11T12:42:54;0.63;;;0.57;;
26391;SDS011;14572;43.120;1.178;2022-07-11T12:45:21;1.05;;;0.80;;
26391;SDS011;14572;43.120;1.178;2022-07-11T12:47:49;3.05;;;0.77;;
26391;SDS011;14572;43.120;1.178;2022-07-11T12:50:18;1.48;;;0.85;;
26391;SDS011;14572;43.120;1.178;2022-07-11T12:52:47;0.70;;;0.70;;
26391;SDS011;14572;43.120;1.178;2022-07-11T12:55:19;1.33;;;1.00;;
26391;SDS011;14572;43.120;1.178;2022-07-11T12:58:00;2.63;;;1.00;;
26391;SDS011;14572;43.120;1.178;2022-07-11T13:00:30;1.42;;;0.90;;
26391;SDS011;14572;43.120;1.178;2022-07-11T13:03:00;1.10;;;0.50;;
26391;SDS011;14572;43.120;1.178;2022-07-11T13:05:27;0.98;;;0.70;;
26391;SDS011;14572;43.120;1.178;2022-07-11T13:07:54;1.00;;;0.70;;
26391;SDS011;14572;43.120;1.178;2022-07-11T13:10:39;2.28;;;0.70;;
26391;SDS011;14572;43.120;1.178;2022-07-11T13:13:25;1.17;;;0.80;;
26391;SDS011;14572;43.120;1.178;2022-07-11T13:15:52;2.60;;;1.00;;
26391;SDS011;14572;43.120;1.178;2022-07-11T13:18:21;0.70;;;0.70;;
26391;SDS011;14572;43.120;1.178;2022-07-11T13:20:49;1.25;;;0.88;;
26391;SDS011;14572;43.120;1.178;2022-07-11T13:23:16;1.40;;;0.70;;
26391;SDS011;14572;43.120;1.178;2022-07-11T13:25:44;1.48;;;0.93;;
26391;SDS011;14572;43.120;1.178;2022-07-11T13:28:21;1.25;;;0.98;;
26391;SDS011;14572;43.120;1.178;2022-07-11T13:30:49;1.02;;;0.80;;
26391;SDS011;14572;43.120;1.178;2022-07-11T13:33:16;1.65;;;0.80;;
26391;SDS011;14572;43.120;1.178;2022-07-11T13:35:45;2.08;;;0.90;;
26391;SDS011;14572;43.120;1.178;2022-07-11T13:38:13;1.35;;;0.90;;
26391;SDS011;14572;43.120;1.178;2022-07-11T13:40:42;1.63;;;0.80;;
26391;SDS011;14572;43.120;1.178;2022-07-11T13:43:35;1.90;;;0.90;;
26391;SDS011;14572;43.120;1.178;2022-07-11T13:46:07;1.27;;;0.90;;
26391;SDS011;14572;43.120;1.178;2022-07-11T14:13:25;1.85;;;1.00;;
26391;SDS011;14572;43.120;1.178;2022-07-11T14:15:53;0.80;;;0.80;;
26391;SDS011;14572;43.120;1.178;2022-07-11T14:18:20;1.30;;;1.10;;
26391;SDS011;14572;43.120;1.178;2022-07-11T14:20:47;0.98;;;0.90;;
26391;SDS011;14572;43.120;1.178;2022-07-11T14:23:14;0.70;;;0.70;;
26391;SDS011;14572;43.120;1.178;2022-07-11T14:25:41;1.20;;;1.10;;
26391;SDS011;14572;43.120;1.178;2022-07-11T14:28:08;0.65;;;0.65;;
26391;SDS011;14572;43.120;1.178;2022-07-11T14:30:37;1.10;;;0.93;;
26391;SDS011;14572;43.120;1.178;2022-07-11T14:33:04;1.23;;;0.95;;
26391;SDS011;14572;43.120;1.178;2022-07-11T14:35:31;1.50;;;0.80;;
26391;SDS011;14572;43.120;1.178;2022-07-11T14:37:58;1.23;;;0.88;;
26391;SDS011;14572;43.120;1.178;2022-07-11T14:40:25;0.98;;;0.95;;
26391;SDS011;14572;43.120;1.178;2022-07-11T14:42:53;2.65;;;1.23;;
26391;SDS011;14572;43.120;1.178;2022-07-11T14:45:20;1.60;;;1.08;;
26391;SDS011;14572;43.120;1.178;2022-07-11T14:47:50;4.95;;;1.05;;
26391;SDS011;14572;43.120;1.178;2022-07-11T14:50:17;2.00;;;1.13;;
26391;SDS011;14572;43.120;1.178;2022-07-11T14:52:44;2.20;;;1.10;;
26391;SDS011;14572;43.120;1.178;2022-07-11T14:55:12;1.20;;;1.08;;
26391;SDS011;14572;43.120;1.178;2022-07-11T14:57:39;1.75;;;1.02;;
26391;SDS011;14572;43.120;1.178;2022-07-11T15:00:06;1.55;;;0.93;;
26391;SDS011;14572;43.120;1.178;2022-07-11T15:02:34;1.60;;;1.05;;
26391;SDS011;14572;43.120;1.178;2022-07-11T15:08:41;1.55;;;0.95;;
26391;SDS011;14572;43.120;1.178;2022-07-11T15:11:26;0.90;;;0.90;;
26391;SDS011;14572;43.120;1.178;2022-07-11T15:14:25;3.40;;;0.98;;
26391;SDS011;14572;43.120;1.178;2022-07-11T15:16:52;2.58;;;1.10;;
26391;SDS011;14572;43.120;1.178;2022-07-11T15:19:19;3.45;;;1.20;;
26391;SDS011;14572;43.120;1.178;2022-07-11T15:21:46;1.30;;;1.00;;
26391;SDS011;14572;43.120;1.178;2022-07-11T15:24:15;2.05;;;1.25;;
26391;SDS011;14572;43.120;1.178;2022-07-11T15:26:42;1.55;;;1.00;;
26391;SDS011;14572;43.120;1.178;2022-07-11T15:29:09;4.80;;;1.27;;
26391;SDS011;14572;43.120;1.178;2022-07-11T15:31:36;1.05;;;0.95;;